sensor_id;sensor_type;location;lat;lon;timestamp;noise_LAeq;noise_LA_min;noise_LA_max;noise_LA01;noise_LA95
67308;Laerm;57662;51.436;5.978;2023-02-22T00:00:09;48.93;46.38;53.28;;
67308;Laerm;57662;51.436;5.978;2023-02-22T00:00:31;48.47;45.55;51.85;;
67308;Laerm;57662;51.436;5.978;2023-02-22T00:00:54;48.56;45.63;51.16;;
67308;Laerm;57662;51.436;5.978;2023-02-22T00:01:09;48.67;46.15;50.73;;
67308;Laerm;57662;51.436;5.978;2023-02-22T00:01:28;48.54;45.52;50.94;;
67308;Laerm;57662;51.436;5.978;2023-02-22T00:01:44;48.48;45.63;51.38;;
67308;Laerm;57662;51.436;5.978;2023-02-22T00:01:59;48.58;45.78;51.35;;
67308;Laerm;57662;51.436;5.978;2023-02-22T00:02:34;48.44;45.43;51.53;;
67308;Laerm;57662;51.436;5.978;2023-02-22T00:02:46;48.46;45.77;51.02;;
67308;Laerm;57662;51.436;5.978;2023-02-22T00:02:57;48.49;45.89;51.02;;
67308;Laerm;57662;51.436;5.978;2023-02-22T00:03:24;48.43;45.28;51.16;;
67308;Laerm;57662;51.436;5.978;2023-02-22T00:03:34;48.47;45.53;51.06;;
67308;Laerm;57662;51.436;5.978;2023-02-22T00:03:48;48.34;45.81;50.55;;
67308;Laerm;57662;51.436;5.978;2023-02-22T00:04:00;48.62;45.59;51.25;;
67308;Laerm;57662;51.436;5.978;2023-02-22T00:04:10;48.48;46.00;50.87;;
67308;Laerm;57662;51.436;5.978;2023-02-22T00:04:20;48.53;45.81;50.76;;
67308;Laerm;57662;51.436;5.978;2023-02-22T00:04:31;48.71;45.71;51.33;;
67308;Laerm;57662;51.436;5.978;2023-02-22T00:04:44;48.45;45.83;50.55;;
67308;Laerm;57662;51.436;5.978;2023-02-22T00:04:54;48.79;46.72;51.21;;
67308;Laerm;57662;51.436;5.978;2023-02-22T00:05:05;48.67;46.15;50.72;;
67308;Laerm;57662;51.436;5.978;2023-02-22T00:05:16;48.56;45.74;51.38;;
67308;Laerm;57662;51.436;5.978;2023-02-22T00:05:29;48.63;45.53;51.41;;
67308;Laerm;57662;51.436;5.978;2023-02-22T00:05:44;48.60;46.10;50.89;;
67308;Laerm;57662;51.436;5.978;2023-02-22T00:05:56;48.69;45.26;51.31;;
67308;Laerm;57662;51.436;5.978;2023-02-22T00:06:13;48.62;46.35;51.49;;
67308;Laerm;57662;51.436;5.978;2023-02-22T00:06:24;48.89;46.43;51.12;;
67308;Laerm;57662;51.436;5.978;2023-02-22T00:06:35;49.02;46.72;51.44;;
67308;Laerm;57662;51.436;5.978;2023-02-22T00:06:45;48.60;45.89;52.54;;
67308;Laerm;57662;51.436;5.978;2023-02-22T00:06:56;48.70;46.10;51.36;;
67308;Laerm;57662;51.436;5.978;2023-02-22T00:07:10;48.68;45.86;51.25;;
67308;Laerm;57662;51.436;5.978;2023-02-22T00:07:20;48.64;46.34;51.46;;
67308;Laerm;57662;51.436;5.978;2023-02-22T00:07:32;48.87;46.02;52.06;;
67308;Laerm;57662;51.436;5.978;2023-02-22T00:07:43;48.87;46.12;51.36;;
67308;Laerm;57662;51.436;5.978;2023-02-22T00:07:53;48.76;46.32;51.64;;
67308;Laerm;57662;51.436;5.978;2023-02-22T00:08:07;48.71;46.18;51.55;;
67308;Laerm;57662;51.436;5.978;2023-02-22T00:08:19;48.72;46.52;51.53;;
67308;Laerm;57662;51.436;5.978;2023-02-22T00:08:33;48.72;46.51;50.88;;
67308;Laerm;57662;51.436;5.978;2023-02-22T00:08:45;48.86;46.24;51.21;;
67308;Laerm;57662;51.436;5.978;2023-02-22T00:08:56;48.69;45.59;51.70;;
67308;Laerm;57662;51.436;5.978;2023-02-22T00:09:07;48.29;45.75;50.39;;
67308;Laerm;57662;51.436;5.978;2023-02-22T00:09:18;48.48;45.79;50.64;;
67308;Laerm;57662;51.436;5.978;2023-02-22T00:09:30;48.61;45.59;50.98;;
67308;Laerm;57662;51.436;5.978;2023-02-22T00:09:40;48.66;45.65;50.94;;
67308;Laerm;57662;51.436;5.978;2023-02-22T00:09:51;48.74;45.91;51.48;;
67308;Laerm;57662;51.436;5.978;2023-02-22T00:10:01;48.51;45.51;51.66;;
67308;Laerm;57662;51.436;5.978;2023-02-22T00:10:12;48.65;46.35;51.10;;
67308;Laerm;57662;51.436;5.978;2023-02-22T00:10:23;48.51;45.86;51.11;;
67308;Laerm;57662;51.436;5.978;2023-02-22T00:10:34;48.51;45.09;50.81;;
67308;Laerm;57662;51.436;5.978;2023-02-22T00:10:47;48.64;45.20;51.33;;
67308;Laerm;57662;51.436;5.978;2023-02-22T00:11:06;48.63;45.88;51.19;;
67308;Laerm;57662;51.436;5.978;2023-02-22T00:11:17;48.53;45.88;51.63;;
67308;Laerm;57662;51.436;5.978;2023-02-22T00:11:29;48.71;46.26;51.29;;
67308;Laerm;57662;51.436;5.978;2023-02-22T00:11:44;48.59;45.98;51.80;;
67308;Laerm;57662;51.436;5.978;2023-02-22T00:11:55;48.67;46.08;51.02;;
67308;Laerm;57662;51.436;5.978;2023-02-22T00:12:07;48.88;45.74;51.94;;
67308;Laerm;57662;51.436;5.978;2023-02-22T00:12:19;48.77;46.14;51.20;;
67308;Laerm;57662;51.436;5.978;2023-02-22T00:12:29;48.48;46.14;51.07;;
67308;Laerm;57662;51.436;5.978;2023-02-22T00:12:40;48.45;45.64;50.93;;
67308;Laerm;57662;51.436;5.978;2023-02-22T00:12:52;48.59;46.02;51.66;;
67308;Laerm;57662;51.436;5.978;2023-02-22T00:13:03;48.55;46.06;51.19;;
67308;Laerm;57662;51.436;5.978;2023-02-22T00:13:14;48.68;45.85;51.43;;
67308;Laerm;57662;51.436;5.978;2023-02-22T00:13:25;48.59;46.11;50.99;;
67308;Laerm;57662;51.436;5.978;2023-02-22T00:13:38;48.69;46.14;51.01;;
67308;Laerm;57662;51.436;5.978;2023-02-22T00:13:48;48.42;45.90;51.32;;
67308;Laerm;57662;51.436;5.978;2023-02-22T00:13:59;48.34;45.74;51.27;;
67308;Laerm;57662;51.436;5.978;2023-02-22T00:14:11;48.48;46.05;51.04;;
67308;Laerm;57662;51.436;5.978;2023-02-22T00:14:21;48.45;44.61;50.95;;
67308;Laerm;57662;51.436;5.978;2023-02-22T00:14:35;48.38;45.88;50.64;;
67308;Laerm;57662;51.436;5.978;2023-02-22T00:14:45;48.54;46.26;51.02;;
67308;Laerm;57662;51.436;5.978;2023-02-22T00:14:56;48.50;45.84;50.87;;
67308;Laerm;57662;51.436;5.978;2023-02-22T00:15:08;48.46;45.93;51.07;;
67308;Laerm;57662;51.436;5.978;2023-02-22T00:15:23;48.54;45.09;51.09;;
67308;Laerm;57662;51.436;5.978;2023-02-22T00:15:36;48.72;45.88;51.22;;
67308;Laerm;57662;51.436;5.978;2023-02-22T00:15:46;48.42;45.47;50.72;;
67308;Laerm;57662;51.436;5.978;2023-02-22T00:15:57;48.36;45.37;50.80;;
67308;Laerm;57662;51.436;5.978;2023-02-22T00:16:27;48.32;45.53;51.44;;
67308;Laerm;57662;51.436;5.978;2023-02-22T00:16:56;48.42;45.34;51.31;;
67308;Laerm;57662;51.436;5.978;2023-02-22T00:17:27;48.54;45.42;51.89;;
67308;Laerm;57662;51.436;5.978;2023-02-22T00:17:58;48.34;44.57;51.84;;
67308;Laerm;57662;51.436;5.978;2023-02-22T00:18:27;48.46;46.00;50.91;;
67308;Laerm;57662;51.436;5.978;2023-02-22T00:18:56;48.50;45.76;51.30;;
67308;Laerm;57662;51.436;5.978;2023-02-22T00:19:25;48.58;45.30;51.44;;
67308;Laerm;57662;51.436;5.978;2023-02-22T00:19:55;48.49;45.06;51.38;;
67308;Laerm;57662;51.436;5.978;2023-02-22T00:20:24;48.53;45.44;51.70;;
67308;Laerm;57662;51.436;5.978;2023-02-22T00:20:57;48.53;45.79;51.54;;
67308;Laerm;57662;51.436;5.978;2023-02-22T00:21:29;48.49;45.57;52.03;;
67308;Laerm;57662;51.436;5.978;2023-02-22T00:21:58;48.55;44.77;50.93;;
67308;Laerm;57662;51.436;5.978;2023-02-22T00:22:27;48.52;45.05;51.44;;
67308;Laerm;57662;51.436;5.978;2023-02-22T00:22:57;48.66;45.75;51.72;;
67308;Laerm;57662;51.436;5.978;2023-02-22T00:23:29;48.58;45.64;51.23;;
67308;Laerm;57662;51.436;5.978;2023-02-22T00:23:59;48.47;45.13;50.97;;
67308;Laerm;57662;51.436;5.978;2023-02-22T00:24:34;48.63;45.48;51.83;;
67308;Laerm;57662;51.436;5.978;2023-02-22T00:25:03;48.95;45.57;53.72;;
67308;Laerm;57662;51.436;5.978;2023-02-22T00:25:33;53.06;46.87;64.78;;
67308;Laerm;57662;51.436;5.978;2023-02-22T00:26:01;63.28;45.82;76.07;;
67308;Laerm;57662;51.436;5.978;2023-02-22T00:26:31;48.51;45.61;51.69;;
67308;Laerm;57662;51.436;5.978;2023-02-22T00:27:01;48.47;45.53;51.02;;
67308;Laerm;57662;51.436;5.978;2023-02-22T00:27:30;48.45;45.25;50.94;;
67308;Laerm;57662;51.436;5.978;2023-02-22T00:28:00;48.47;45.83;51.57;;
67308;Laerm;57662;51.436;5.978;2023-02-22T00:28:29;48.49;45.78;51.07;;
67308;Laerm;57662;51.436;5.978;2023-02-22T00:28:58;48.63;44.97;51.42;;
67308;Laerm;57662;51.436;5.978;2023-02-22T00:29:27;48.48;45.63;51.26;;
67308;Laerm;57662;51.436;5.978;2023-02-22T00:29:57;48.44;45.08;50.99;;
67308;Laerm;57662;51.436;5.978;2023-02-22T00:30:28;48.42;44.89;51.23;;
67308;Laerm;57662;51.436;5.978;2023-02-22T00:30:57;48.52;46.02;52.02;;
67308;Laerm;57662;51.436;5.978;2023-02-22T00:31:27;48.67;45.61;54.03;;
67308;Laerm;57662;51.436;5.978;2023-02-22T00:31:56;48.48;45.35;51.37;;
67308;Laerm;57662;51.436;5.978;2023-02-22T00:32:25;48.47;44.91;51.49;;
67308;Laerm;57662;51.436;5.978;2023-02-22T00:32:54;48.53;45.61;51.80;;
67308;Laerm;57662;51.436;5.978;2023-02-22T00:33:23;48.62;45.64;51.46;;
67308;Laerm;57662;51.436;5.978;2023-02-22T00:33:52;48.32;44.89;51.30;;
67308;Laerm;57662;51.436;5.978;2023-02-22T00:34:21;48.60;45.69;51.45;;
67308;Laerm;57662;51.436;5.978;2023-02-22T00:34:54;48.28;45.13;51.53;;
67308;Laerm;57662;51.436;5.978;2023-02-22T00:35:27;48.53;45.70;52.01;;
67308;Laerm;57662;51.436;5.978;2023-02-22T00:35:56;48.42;45.77;52.10;;
67308;Laerm;57662;51.436;5.978;2023-02-22T00:36:25;48.47;45.50;50.90;;
67308;Laerm;57662;51.436;5.978;2023-02-22T00:36:54;48.37;45.48;51.80;;
67308;Laerm;57662;51.436;5.978;2023-02-22T00:37:23;48.75;45.70;54.26;;
67308;Laerm;57662;51.436;5.978;2023-02-22T00:37:53;48.54;45.79;51.40;;
67308;Laerm;57662;51.436;5.978;2023-02-22T00:38:22;48.60;45.93;51.65;;
67308;Laerm;57662;51.436;5.978;2023-02-22T00:38:51;48.53;45.66;51.43;;
67308;Laerm;57662;51.436;5.978;2023-02-22T00:39:20;48.57;45.49;51.56;;
67308;Laerm;57662;51.436;5.978;2023-02-22T00:39:49;48.56;46.13;51.14;;
67308;Laerm;57662;51.436;5.978;2023-02-22T00:40:21;48.64;45.65;51.82;;
67308;Laerm;57662;51.436;5.978;2023-02-22T00:40:50;48.78;46.04;51.14;;
67308;Laerm;57662;51.436;5.978;2023-02-22T00:41:20;48.73;46.00;51.79;;
67308;Laerm;57662;51.436;5.978;2023-02-22T00:41:48;48.61;45.28;51.32;;
67308;Laerm;57662;51.436;5.978;2023-02-22T00:42:17;48.53;45.15;51.23;;
67308;Laerm;57662;51.436;5.978;2023-02-22T00:42:46;48.48;45.05;51.15;;
67308;Laerm;57662;51.436;5.978;2023-02-22T00:43:15;48.47;45.67;51.10;;
67308;Laerm;57662;51.436;5.978;2023-02-22T00:43:44;48.63;46.03;51.41;;
67308;Laerm;57662;51.436;5.978;2023-02-22T00:44:13;48.64;45.49;51.84;;
67308;Laerm;57662;51.436;5.978;2023-02-22T00:44:42;48.63;45.78;51.44;;
67308;Laerm;57662;51.436;5.978;2023-02-22T00:45:12;48.76;45.51;52.46;;
67308;Laerm;57662;51.436;5.978;2023-02-22T00:45:41;48.58;45.59;51.44;;
67308;Laerm;57662;51.436;5.978;2023-02-22T00:46:10;48.60;45.85;51.22;;
67308;Laerm;57662;51.436;5.978;2023-02-22T00:46:40;48.52;44.95;51.78;;
67308;Laerm;57662;51.436;5.978;2023-02-22T00:47:09;48.63;45.79;51.96;;
67308;Laerm;57662;51.436;5.978;2023-02-22T00:47:38;48.60;45.69;51.51;;
67308;Laerm;57662;51.436;5.978;2023-02-22T00:48:07;48.58;45.60;51.77;;
67308;Laerm;57662;51.436;5.978;2023-02-22T00:48:36;48.65;45.28;51.76;;
67308;Laerm;57662;51.436;5.978;2023-02-22T00:49:05;48.49;45.30;51.50;;
67308;Laerm;57662;51.436;5.978;2023-02-22T00:49:34;48.72;45.87;52.49;;
67308;Laerm;57662;51.436;5.978;2023-02-22T00:50:03;50.44;47.24;53.11;;
67308;Laerm;57662;51.436;5.978;2023-02-22T00:50:32;65.59;46.96;72.07;;
67308;Laerm;57662;51.436;5.978;2023-02-22T00:50:55;64.53;48.92;71.10;;
67308;Laerm;57662;51.436;5.978;2023-02-22T00:51:05;49.88;47.76;51.90;;
67308;Laerm;57662;51.436;5.978;2023-02-22T00:51:15;49.15;46.31;52.45;;
67308;Laerm;57662;51.436;5.978;2023-02-22T00:51:26;48.88;46.12;52.28;;
67308;Laerm;57662;51.436;5.978;2023-02-22T00:51:37;48.80;45.27;51.12;;
67308;Laerm;57662;51.436;5.978;2023-02-22T00:51:48;48.56;46.38;51.85;;
67308;Laerm;57662;51.436;5.978;2023-02-22T00:51:58;48.62;45.77;51.00;;
67308;Laerm;57662;51.436;5.978;2023-02-22T00:52:08;48.71;45.86;50.79;;
67308;Laerm;57662;51.436;5.978;2023-02-22T00:52:19;48.72;45.99;51.11;;
67308;Laerm;57662;51.436;5.978;2023-02-22T00:52:29;48.44;46.03;50.75;;
67308;Laerm;57662;51.436;5.978;2023-02-22T00:52:40;49.74;45.63;53.51;;
67308;Laerm;57662;51.436;5.978;2023-02-22T00:52:51;49.04;45.78;51.98;;
67308;Laerm;57662;51.436;5.978;2023-02-22T00:53:02;48.62;46.32;51.10;;
67308;Laerm;57662;51.436;5.978;2023-02-22T00:53:13;48.61;45.26;51.38;;
67308;Laerm;57662;51.436;5.978;2023-02-22T00:53:23;48.52;46.05;50.92;;
67308;Laerm;57662;51.436;5.978;2023-02-22T00:53:34;48.59;44.66;51.51;;
67308;Laerm;57662;51.436;5.978;2023-02-22T00:53:44;48.51;46.01;51.11;;
67308;Laerm;57662;51.436;5.978;2023-02-22T00:53:55;48.46;46.20;50.48;;
67308;Laerm;57662;51.436;5.978;2023-02-22T00:54:05;49.55;46.84;52.64;;
67308;Laerm;57662;51.436;5.978;2023-02-22T00:54:15;49.69;45.59;52.34;;
67308;Laerm;57662;51.436;5.978;2023-02-22T00:54:29;48.78;46.00;50.96;;
67308;Laerm;57662;51.436;5.978;2023-02-22T00:54:39;48.58;45.72;50.97;;
67308;Laerm;57662;51.436;5.978;2023-02-22T00:54:49;48.51;45.82;51.30;;
67308;Laerm;57662;51.436;5.978;2023-02-22T00:55:00;48.50;45.74;51.41;;
67308;Laerm;57662;51.436;5.978;2023-02-22T00:55:14;48.58;46.01;51.55;;
67308;Laerm;57662;51.436;5.978;2023-02-22T00:55:26;48.42;44.99;51.15;;
67308;Laerm;57662;51.436;5.978;2023-02-22T00:55:39;48.55;45.61;51.73;;
67308;Laerm;57662;51.436;5.978;2023-02-22T00:55:49;48.40;46.17;51.00;;
67308;Laerm;57662;51.436;5.978;2023-02-22T00:56:00;48.56;46.13;51.01;;
67308;Laerm;57662;51.436;5.978;2023-02-22T00:56:10;48.39;45.60;51.34;;
67308;Laerm;57662;51.436;5.978;2023-02-22T00:56:20;48.60;45.18;51.22;;
67308;Laerm;57662;51.436;5.978;2023-02-22T00:56:32;51.19;47.68;53.94;;
67308;Laerm;57662;51.436;5.978;2023-02-22T00:56:43;50.29;47.65;52.39;;
67308;Laerm;57662;51.436;5.978;2023-02-22T00:56:53;50.82;47.67;53.02;;
67308;Laerm;57662;51.436;5.978;2023-02-22T00:57:03;51.55;48.30;53.81;;
67308;Laerm;57662;51.436;5.978;2023-02-22T00:57:14;66.19;51.10;70.89;;
67308;Laerm;57662;51.436;5.978;2023-02-22T00:57:24;66.72;63.81;70.54;;
67308;Laerm;57662;51.436;5.978;2023-02-22T00:57:35;65.10;55.13;68.55;;
67308;Laerm;57662;51.436;5.978;2023-02-22T00:57:45;52.29;48.68;58.28;;
67308;Laerm;57662;51.436;5.978;2023-02-22T00:57:55;49.11;46.58;51.90;;
67308;Laerm;57662;51.436;5.978;2023-02-22T00:58:06;48.70;45.34;51.50;;
67308;Laerm;57662;51.436;5.978;2023-02-22T00:58:17;48.75;46.15;51.23;;
67308;Laerm;57662;51.436;5.978;2023-02-22T00:58:27;48.58;45.55;50.78;;
67308;Laerm;57662;51.436;5.978;2023-02-22T00:58:37;48.56;45.20;51.49;;
67308;Laerm;57662;51.436;5.978;2023-02-22T00:58:48;48.48;45.43;50.51;;
67308;Laerm;57662;51.436;5.978;2023-02-22T00:58:59;48.60;45.47;51.42;;
67308;Laerm;57662;51.436;5.978;2023-02-22T00:59:12;48.46;45.91;51.34;;
67308;Laerm;57662;51.436;5.978;2023-02-22T00:59:23;48.49;45.79;51.09;;
67308;Laerm;57662;51.436;5.978;2023-02-22T00:59:33;48.55;46.02;51.37;;
67308;Laerm;57662;51.436;5.978;2023-02-22T00:59:43;48.49;45.27;50.82;;
67308;Laerm;57662;51.436;5.978;2023-02-22T00:59:54;48.36;45.50;50.94;;
67308;Laerm;57662;51.436;5.978;2023-02-22T01:00:05;48.54;45.83;53.20;;
67308;Laerm;57662;51.436;5.978;2023-02-22T01:00:22;49.08;45.40;54.24;;
67308;Laerm;57662;51.436;5.978;2023-02-22T01:00:34;49.25;45.65;52.12;;
67308;Laerm;57662;51.436;5.978;2023-02-22T01:00:48;50.67;47.54;53.59;;
67308;Laerm;57662;51.436;5.978;2023-02-22T01:00:59;51.39;48.48;53.74;;
67308;Laerm;57662;51.436;5.978;2023-02-22T01:01:09;50.68;48.20;52.70;;
67308;Laerm;57662;51.436;5.978;2023-02-22T01:01:19;50.08;46.90;52.81;;
67308;Laerm;57662;51.436;5.978;2023-02-22T01:01:30;57.76;48.60;70.02;;
67308;Laerm;57662;51.436;5.978;2023-02-22T01:01:40;72.49;66.53;78.11;;
67308;Laerm;57662;51.436;5.978;2023-02-22T01:01:52;70.71;64.80;78.00;;
67308;Laerm;57662;51.436;5.978;2023-02-22T01:02:02;66.95;51.13;72.71;;
67308;Laerm;57662;51.436;5.978;2023-02-22T01:02:13;50.36;46.81;56.85;;
67308;Laerm;57662;51.436;5.978;2023-02-22T01:02:23;48.50;45.82;50.97;;
67308;Laerm;57662;51.436;5.978;2023-02-22T01:02:33;48.58;46.03;51.25;;
67308;Laerm;57662;51.436;5.978;2023-02-22T01:02:44;48.51;45.23;51.11;;
67308;Laerm;57662;51.436;5.978;2023-02-22T01:02:54;48.29;45.13;50.60;;
67308;Laerm;57662;51.436;5.978;2023-02-22T01:03:07;48.26;45.85;50.72;;
67308;Laerm;57662;51.436;5.978;2023-02-22T01:03:18;48.33;45.87;50.84;;
67308;Laerm;57662;51.436;5.978;2023-02-22T01:03:28;48.30;45.63;50.80;;
67308;Laerm;57662;51.436;5.978;2023-02-22T01:03:41;48.51;45.61;50.96;;
67308;Laerm;57662;51.436;5.978;2023-02-22T01:03:52;48.38;45.82;50.70;;
67308;Laerm;57662;51.436;5.978;2023-02-22T01:04:02;48.42;46.07;50.61;;
67308;Laerm;57662;51.436;5.978;2023-02-22T01:04:13;48.43;46.12;50.82;;
67308;Laerm;57662;51.436;5.978;2023-02-22T01:04:24;48.51;46.06;51.01;;
67308;Laerm;57662;51.436;5.978;2023-02-22T01:04:34;48.55;44.93;51.37;;
67308;Laerm;57662;51.436;5.978;2023-02-22T01:04:45;48.56;45.46;51.19;;
67308;Laerm;57662;51.436;5.978;2023-02-22T01:04:55;48.55;45.48;51.94;;
67308;Laerm;57662;51.436;5.978;2023-02-22T01:05:06;49.92;45.80;56.48;;
67308;Laerm;57662;51.436;5.978;2023-02-22T01:05:18;49.77;46.44;53.77;;
67308;Laerm;57662;51.436;5.978;2023-02-22T01:05:30;48.53;46.25;51.06;;
67308;Laerm;57662;51.436;5.978;2023-02-22T01:05:42;48.56;45.88;51.58;;
67308;Laerm;57662;51.436;5.978;2023-02-22T01:05:52;48.67;46.42;51.43;;
67308;Laerm;57662;51.436;5.978;2023-02-22T01:06:03;48.34;46.01;50.65;;
67308;Laerm;57662;51.436;5.978;2023-02-22T01:06:13;48.36;45.95;51.09;;
67308;Laerm;57662;51.436;5.978;2023-02-22T01:06:23;48.46;45.56;51.43;;
67308;Laerm;57662;51.436;5.978;2023-02-22T01:06:34;48.50;45.58;52.06;;
67308;Laerm;57662;51.436;5.978;2023-02-22T01:06:44;48.99;45.70;51.83;;
67308;Laerm;57662;51.436;5.978;2023-02-22T01:06:54;49.45;47.11;51.72;;
67308;Laerm;57662;51.436;5.978;2023-02-22T01:07:05;49.53;46.40;51.77;;
67308;Laerm;57662;51.436;5.978;2023-02-22T01:07:15;49.89;47.34;52.88;;
67308;Laerm;57662;51.436;5.978;2023-02-22T01:07:25;65.89;48.69;71.75;;
67308;Laerm;57662;51.436;5.978;2023-02-22T01:07:36;70.02;66.78;73.57;;
67308;Laerm;57662;51.436;5.978;2023-02-22T01:07:47;70.78;61.90;76.35;;
67308;Laerm;57662;51.436;5.978;2023-02-22T01:07:58;56.53;48.48;63.45;;
67308;Laerm;57662;51.436;5.978;2023-02-22T01:08:10;49.81;47.39;52.07;;
67308;Laerm;57662;51.436;5.978;2023-02-22T01:08:20;48.73;45.21;51.57;;
67308;Laerm;57662;51.436;5.978;2023-02-22T01:08:31;48.63;45.88;51.29;;
67308;Laerm;57662;51.436;5.978;2023-02-22T01:08:44;48.57;46.06;52.22;;
67308;Laerm;57662;51.436;5.978;2023-02-22T01:08:55;48.46;45.78;51.06;;
67308;Laerm;57662;51.436;5.978;2023-02-22T01:09:05;48.28;45.74;51.04;;
67308;Laerm;57662;51.436;5.978;2023-02-22T01:09:16;48.40;45.63;51.01;;
67308;Laerm;57662;51.436;5.978;2023-02-22T01:09:27;48.51;45.85;50.97;;
67308;Laerm;57662;51.436;5.978;2023-02-22T01:09:37;48.47;45.45;50.94;;
67308;Laerm;57662;51.436;5.978;2023-02-22T01:09:48;48.52;45.93;51.07;;
67308;Laerm;57662;51.436;5.978;2023-02-22T01:09:59;48.39;45.97;50.71;;
67308;Laerm;57662;51.436;5.978;2023-02-22T01:10:10;48.75;45.26;51.48;;
67308;Laerm;57662;51.436;5.978;2023-02-22T01:10:22;48.68;45.06;50.86;;
67308;Laerm;57662;51.436;5.978;2023-02-22T01:10:32;48.56;45.58;50.90;;
67308;Laerm;57662;51.436;5.978;2023-02-22T01:10:43;48.40;45.63;51.19;;
67308;Laerm;57662;51.436;5.978;2023-02-22T01:10:53;48.64;45.86;51.07;;
67308;Laerm;57662;51.436;5.978;2023-02-22T01:11:05;48.60;45.87;51.10;;
67308;Laerm;57662;51.436;5.978;2023-02-22T01:11:16;48.97;46.14;52.01;;
67308;Laerm;57662;51.436;5.978;2023-02-22T01:11:26;50.38;48.39;52.28;;
67308;Laerm;57662;51.436;5.978;2023-02-22T01:11:36;50.00;47.28;52.00;;
67308;Laerm;57662;51.436;5.978;2023-02-22T01:11:49;50.29;48.15;52.34;;
67308;Laerm;57662;51.436;5.978;2023-02-22T01:12:04;65.50;48.31;72.91;;
67308;Laerm;57662;51.436;5.978;2023-02-22T01:12:14;67.15;64.82;69.30;;
67308;Laerm;57662;51.436;5.978;2023-02-22T01:12:25;63.27;52.38;68.24;;
67308;Laerm;57662;51.436;5.978;2023-02-22T01:12:36;50.47;47.23;53.45;;
67308;Laerm;57662;51.436;5.978;2023-02-22T01:12:47;48.69;45.89;51.62;;
67308;Laerm;57662;51.436;5.978;2023-02-22T01:12:59;48.94;46.09;51.66;;
67308;Laerm;57662;51.436;5.978;2023-02-22T01:13:10;48.62;46.06;50.67;;
67308;Laerm;57662;51.436;5.978;2023-02-22T01:13:21;48.66;46.24;51.95;;
67308;Laerm;57662;51.436;5.978;2023-02-22T01:13:32;48.66;46.21;51.23;;
67308;Laerm;57662;51.436;5.978;2023-02-22T01:13:43;48.67;46.01;51.37;;
67308;Laerm;57662;51.436;5.978;2023-02-22T01:13:57;48.63;45.89;51.58;;
67308;Laerm;57662;51.436;5.978;2023-02-22T01:14:07;48.64;46.31;51.19;;
67308;Laerm;57662;51.436;5.978;2023-02-22T01:14:18;48.62;46.06;51.51;;
67308;Laerm;57662;51.436;5.978;2023-02-22T01:14:30;48.74;46.00;51.38;;
67308;Laerm;57662;51.436;5.978;2023-02-22T01:14:40;48.53;46.67;51.58;;
67308;Laerm;57662;51.436;5.978;2023-02-22T01:14:50;48.69;46.04;51.22;;
67308;Laerm;57662;51.436;5.978;2023-02-22T01:15:04;48.77;44.60;51.14;;
67308;Laerm;57662;51.436;5.978;2023-02-22T01:15:15;48.63;46.11;50.98;;
67308;Laerm;57662;51.436;5.978;2023-02-22T01:15:27;48.58;45.83;51.69;;
67308;Laerm;57662;51.436;5.978;2023-02-22T01:15:40;48.47;45.93;50.84;;
67308;Laerm;57662;51.436;5.978;2023-02-22T01:15:51;48.53;45.87;51.22;;
67308;Laerm;57662;51.436;5.978;2023-02-22T01:16:02;48.55;46.28;51.06;;
67308;Laerm;57662;51.436;5.978;2023-02-22T01:16:12;48.62;45.96;51.20;;
67308;Laerm;57662;51.436;5.978;2023-02-22T01:16:23;48.24;45.42;50.98;;
67308;Laerm;57662;51.436;5.978;2023-02-22T01:16:34;48.57;46.09;51.47;;
67308;Laerm;57662;51.436;5.978;2023-02-22T01:16:44;48.64;45.42;51.62;;
67308;Laerm;57662;51.436;5.978;2023-02-22T01:16:55;48.48;45.72;51.76;;
67308;Laerm;57662;51.436;5.978;2023-02-22T01:17:06;48.64;45.78;51.26;;
67308;Laerm;57662;51.436;5.978;2023-02-22T01:17:16;48.52;45.75;50.82;;
67308;Laerm;57662;51.436;5.978;2023-02-22T01:17:26;48.70;45.72;51.24;;
67308;Laerm;57662;51.436;5.978;2023-02-22T01:17:38;48.53;45.83;51.00;;
67308;Laerm;57662;51.436;5.978;2023-02-22T01:17:49;48.74;46.22;51.91;;
67308;Laerm;57662;51.436;5.978;2023-02-22T01:18:00;48.71;45.91;51.34;;
67308;Laerm;57662;51.436;5.978;2023-02-22T01:18:10;48.72;46.09;51.45;;
67308;Laerm;57662;51.436;5.978;2023-02-22T01:18:21;48.65;45.64;50.63;;
67308;Laerm;57662;51.436;5.978;2023-02-22T01:18:35;48.66;45.55;51.41;;
67308;Laerm;57662;51.436;5.978;2023-02-22T01:18:46;48.76;46.32;51.60;;
67308;Laerm;57662;51.436;5.978;2023-02-22T01:18:56;49.60;46.54;53.20;;
67308;Laerm;57662;51.436;5.978;2023-02-22T01:19:06;51.71;48.57;53.79;;
67308;Laerm;57662;51.436;5.978;2023-02-22T01:19:17;51.20;48.29;54.02;;
67308;Laerm;57662;51.436;5.978;2023-02-22T01:19:28;51.19;48.79;53.70;;
67308;Laerm;57662;51.436;5.978;2023-02-22T01:19:38;52.41;48.72;58.91;;
67308;Laerm;57662;51.436;5.978;2023-02-22T01:19:52;69.44;58.68;72.61;;
67308;Laerm;57662;51.436;5.978;2023-02-22T01:20:03;68.60;56.05;72.72;;
67308;Laerm;57662;51.436;5.978;2023-02-22T01:20:20;51.13;46.60;57.38;;
67308;Laerm;57662;51.436;5.978;2023-02-22T01:20:31;48.83;46.37;51.64;;
67308;Laerm;57662;51.436;5.978;2023-02-22T01:20:42;48.58;45.75;51.20;;
67308;Laerm;57662;51.436;5.978;2023-02-22T01:20:56;48.62;46.07;52.25;;
67308;Laerm;57662;51.436;5.978;2023-02-22T01:21:07;48.73;45.95;51.63;;
67308;Laerm;57662;51.436;5.978;2023-02-22T01:21:17;48.58;45.04;50.86;;
67308;Laerm;57662;51.436;5.978;2023-02-22T01:21:28;48.61;45.95;51.09;;
67308;Laerm;57662;51.436;5.978;2023-02-22T01:21:39;48.71;45.68;51.21;;
67308;Laerm;57662;51.436;5.978;2023-02-22T01:21:49;48.43;46.32;51.35;;
67308;Laerm;57662;51.436;5.978;2023-02-22T01:22:00;48.44;45.38;50.50;;
67308;Laerm;57662;51.436;5.978;2023-02-22T01:22:10;48.44;46.00;50.80;;
67308;Laerm;57662;51.436;5.978;2023-02-22T01:22:20;48.54;46.18;51.16;;
67308;Laerm;57662;51.436;5.978;2023-02-22T01:22:31;48.73;45.65;51.29;;
67308;Laerm;57662;51.436;5.978;2023-02-22T01:22:42;48.53;45.99;51.22;;
67308;Laerm;57662;51.436;5.978;2023-02-22T01:22:53;48.56;45.88;51.60;;
67308;Laerm;57662;51.436;5.978;2023-02-22T01:23:05;48.47;45.84;50.99;;
67308;Laerm;57662;51.436;5.978;2023-02-22T01:23:16;48.51;45.48;50.82;;
67308;Laerm;57662;51.436;5.978;2023-02-22T01:23:27;48.39;45.81;50.83;;
67308;Laerm;57662;51.436;5.978;2023-02-22T01:23:37;48.36;45.43;50.59;;
67308;Laerm;57662;51.436;5.978;2023-02-22T01:23:47;48.50;45.79;50.67;;
67308;Laerm;57662;51.436;5.978;2023-02-22T01:23:58;48.46;45.16;50.97;;
67308;Laerm;57662;51.436;5.978;2023-02-22T01:24:08;48.48;45.59;51.93;;
67308;Laerm;57662;51.436;5.978;2023-02-22T01:24:19;48.55;45.91;51.47;;
67308;Laerm;57662;51.436;5.978;2023-02-22T01:24:29;48.52;45.28;50.82;;
67308;Laerm;57662;51.436;5.978;2023-02-22T01:24:39;48.54;45.90;51.06;;
67308;Laerm;57662;51.436;5.978;2023-02-22T01:24:50;48.63;45.88;51.02;;
67308;Laerm;57662;51.436;5.978;2023-02-22T01:25:00;48.49;46.22;50.56;;
67308;Laerm;57662;51.436;5.978;2023-02-22T01:25:11;48.67;46.24;50.97;;
67308;Laerm;57662;51.436;5.978;2023-02-22T01:25:23;48.57;45.91;50.68;;
67308;Laerm;57662;51.436;5.978;2023-02-22T01:25:34;48.68;45.70;51.70;;
67308;Laerm;57662;51.436;5.978;2023-02-22T01:25:44;48.56;45.77;51.17;;